Archival Weather

Randolph Afb

Universal City, Texas (KRND)

Report from: Monday, September 26, 2022 6:55 AM CDT
Current time: Saturday, February 4, 2023 10:48 PM CST

Current weather
Weather history
Weather forecast

Temperature22.0°C (71.6°F)
Dew point20.3°C (68.5°F)
Winds 5 kts (2.6 m/s, 5.8 mph) North-Northwest (330°)
Visibility10 mi. (16.1 km)
Clouds Sky clear
Altimeter30.00 in.Hg (1016 mB)
Relative humidity90 %
Density altitude1,048 ft. (319 m)
Sea-level pressure101.5 kPa (1015 mB, 29.97 in.Hg)
Max temp last 6 hours26.0°C (78.8°F)
Min temp last 6 hours21.9°C (71.4°F)
Remarks Fully automated report
Automated weather observing station with precipitation discriminator
Pressure rising
Flight conditions Visual Meteorological Conditions
Raw dataKRND 261155Z AUTO 33005KT 10SM CLR 22/20 A3000 RMK AO2 SLP150 T02200203 10260 20219 52014
An unhandled exception has occurred. See browser dev tools for details. Reload 🗙